Time;durP1;ratioP1;P1;durP2;ratioP2;P2;SDS_P1;SDS_P2;PMS_P1;PMS_P2;Temp;Humidity;BMP_temperature;BMP_pressure;BME280_temperature;BME280_humidity;BME280_pressure;Samples;Min_cycle;Max_cycle;Signal;HPM_P1;HPM_P2
2021/10/13 00:01:59;;;;;;;;;;;11.70;99.90;;;;;;5095463;28;19977;-78
2021/10/13 00:04:26;;;;;;;;;;;11.70;99.90;;;;;;5095582;28;20344;-79
2021/10/13 00:06:54;;;;;;;;;;;11.70;99.90;;;;;;5095543;28;19997;-78
2021/10/13 00:09:21;;;;;;;;;;;11.70;99.90;;;;;;5095620;28;19950;-78
2021/10/13 00:11:48;;;;;;;;;;;11.70;99.90;;;;;;5095386;28;19924;-78
2021/10/13 00:14:17;;;;;;;;;;;11.60;99.90;;;;;;5095205;28;19934;-78
2021/10/13 00:16:52;;;;;;;;;;;11.60;99.90;;;;;;5095424;28;19924;-79
2021/10/13 00:19:23;;;;;;;;;;;11.60;99.90;;;;;;5095308;28;19936;-77
2021/10/13 00:21:51;;;;;;;;;;;11.60;99.90;;;;;;5095504;28;19924;-77
2021/10/13 00:24:22;;;;;;;;;;;11.60;99.90;;;;;;5095276;28;19924;-78
2021/10/13 00:26:50;;;;;;;;;;;11.60;99.90;;;;;;5095426;28;19933;-78
2021/10/13 00:29:19;;;;;;;;;;;11.60;99.90;;;;;;5095238;28;19924;-79
2021/10/13 00:31:47;;;;;;;;;;;11.60;99.90;;;;;;5095228;28;19924;-77
2021/10/13 00:34:16;;;;;;;;;;;11.60;99.90;;;;;;5095131;28;19923;-77
2021/10/13 00:36:44;;;;;;;;;;;11.60;99.90;;;;;;5094843;28;19967;-77
2021/10/13 00:39:12;;;;;;;;;;;11.60;99.90;;;;;;5099385;28;19931;-77
2021/10/13 00:41:40;;;;;;;;;;;11.60;99.90;;;;;;5099061;28;19924;-78
2021/10/13 00:44:07;;;;;;;;;;;11.60;99.90;;;;;;5099906;28;20374;-83
2021/10/13 00:46:34;;;;;;;;;;;11.60;99.90;;;;;;5098536;28;20299;-84
2021/10/13 00:49:01;;;;;;;;;;;11.60;99.90;;;;;;5099134;28;20326;-76
2021/10/13 00:51:29;;;;;;;;;;;11.60;99.90;;;;;;5099130;28;19924;-76
2021/10/13 00:53:56;;;;;;;;;;;11.60;99.90;;;;;;5099272;28;19946;-77
2021/10/13 00:56:22;;;;;;;;;;;11.60;99.90;;;;;;5099096;28;20230;-77
2021/10/13 00:58:51;;;;;;;;;;;11.70;99.90;;;;;;5099062;28;19928;-77
2021/10/13 01:01:20;;;;;;;;;;;11.70;99.90;;;;;;5098895;28;19924;-78
2021/10/13 01:03:49;;;;;;;;;;;11.70;99.90;;;;;;5099203;28;19977;-79
2021/10/13 01:06:18;;;;;;;;;;;11.70;99.90;;;;;;5098707;28;19924;-78
2021/10/13 01:08:46;;;;;;;;;;;11.70;99.90;;;;;;5098820;28;19935;-77
2021/10/13 01:11:17;;;;;;;;;;;11.70;99.90;;;;;;5098792;28;19935;-78
2021/10/13 01:13:48;;;;;;;;;;;11.70;99.90;;;;;;5098639;28;19930;-76
2021/10/13 01:16:18;;;;;;;;;;;11.70;99.90;;;;;;5098676;28;20379;-77
2021/10/13 01:18:48;;;;;;;;;;;11.70;99.90;;;;;;5099113;28;19934;-76
2021/10/13 01:21:22;;;;;;;;;;;11.70;99.90;;;;;;5098727;28;19924;-77
2021/10/13 01:24:15;;;;;;;;;;;11.70;99.90;;;;;;5098651;28;20352;-77
2021/10/13 01:26:44;;;;;;;;;;;11.70;99.90;;;;;;5036685;28;20280;-77
2021/10/13 01:29:22;;;;;;;;;;;11.80;99.90;;;;;;5036509;28;19925;-78
2021/10/13 01:31:54;;;;;;;;;;;11.80;99.90;;;;;;5036280;28;19926;-77
2021/10/13 01:34:23;;;;;;;;;;;11.80;99.90;;;;;;5036578;28;19936;-77
2021/10/13 01:36:52;;;;;;;;;;;11.80;99.90;;;;;;5036028;28;19939;-77
2021/10/13 01:39:20;;;;;;;;;;;11.80;99.90;;;;;;5036470;28;19932;-76
2021/10/13 01:41:49;;;;;;;;;;;11.80;99.90;;;;;;5036581;28;20372;-77
2021/10/13 01:44:18;;;;;;;;;;;11.80;99.90;;;;;;5036370;28;20349;-77
2021/10/13 01:46:47;;;;;;;;;;;11.80;99.90;;;;;;5036252;28;19925;-77
2021/10/13 01:49:14;;;;;;;;;;;11.80;99.90;;;;;;5036261;28;19925;-77
2021/10/13 01:51:41;;;;;;;;;;;11.80;99.90;;;;;;5036423;28;19925;-78
2021/10/13 01:54:09;;;;;;;;;;;11.80;99.90;;;;;;5035897;28;19925;-78
2021/10/13 01:56:38;;;;;;;;;;;11.80;99.90;;;;;;5035949;28;20036;-77
2021/10/13 01:59:06;;;;;;;;;;;11.80;99.90;;;;;;5036090;28;19933;-78
2021/10/13 02:01:36;;;;;;;;;;;11.80;99.90;;;;;;5043883;28;19925;-77
2021/10/13 02:04:05;;;;;;;;;;;11.80;99.90;;;;;;5097750;28;19924;-77
2021/10/13 02:06:32;;;;;;;;;;;11.90;99.90;;;;;;5097976;28;19939;-77
2021/10/13 02:09:01;;;;;;;;;;;11.90;99.90;;;;;;5097889;28;19924;-78
2021/10/13 02:11:29;;;;;;;;;;;11.90;99.90;;;;;;5097651;28;20245;-77
2021/10/13 02:13:58;;;;;;;;;;;11.90;99.90;;;;;;5097906;28;19932;-77
2021/10/13 02:16:26;;;;;;;;;;;11.90;99.90;;;;;;5097406;28;19930;-77
2021/10/13 02:18:54;;;;;;;;;;;11.90;99.90;;;;;;5097644;28;19949;-77
2021/10/13 02:21:21;;;;;;;;;;;11.90;99.90;;;;;;5096556;28;19928;-79
2021/10/13 02:23:48;;;;;;;;;;;11.90;99.90;;;;;;5097462;28;19924;-78
2021/10/13 02:26:16;;;;;;;;;;;11.90;99.90;;;;;;5097334;28;20359;-77
2021/10/13 02:28:44;;;;;;;;;;;11.90;99.90;;;;;;5097416;28;19924;-77
2021/10/13 02:31:11;;;;;;;;;;;11.90;99.90;;;;;;5097353;28;19934;-80
2021/10/13 02:33:38;;;;;;;;;;;11.90;99.90;;;;;;5097405;28;19935;-78
2021/10/13 02:36:06;;;;;;;;;;;12.00;99.90;;;;;;5097202;28;19946;-77
2021/10/13 02:38:33;;;;;;;;;;;12.00;99.90;;;;;;5097339;28;19924;-77
2021/10/13 02:41:00;;;;;;;;;;;12.00;99.90;;;;;;5097249;28;19924;-77
2021/10/13 02:43:27;;;;;;;;;;;12.00;99.90;;;;;;5097034;28;19924;-76
2021/10/13 02:45:55;;;;;;;;;;;12.00;99.90;;;;;;5096994;28;20336;-76
2021/10/13 02:48:22;;;;;;;;;;;12.00;99.90;;;;;;5096971;28;19924;-76
2021/10/13 02:50:50;;;;;;;;;;;12.00;99.90;;;;;;5097150;28;20256;-77
2021/10/13 02:53:19;;;;;;;;;;;12.00;99.90;;;;;;5096774;28;20466;-77
2021/10/13 02:55:48;;;;;;;;;;;12.00;99.90;;;;;;5096842;28;19924;-77
2021/10/13 02:58:16;;;;;;;;;;;12.00;99.90;;;;;;5096582;28;19931;-77
2021/10/13 03:00:43;;;;;;;;;;;12.00;99.90;;;;;;5096331;28;19924;-79
2021/10/13 03:03:10;;;;;;;;;;;12.00;99.90;;;;;;5096661;28;20352;-76
2021/10/13 03:05:37;;;;;;;;;;;12.00;99.90;;;;;;5096541;28;19934;-77
2021/10/13 03:08:06;;;;;;;;;;;12.00;99.90;;;;;;5096576;28;19925;-76
2021/10/13 03:10:34;;;;;;;;;;;12.00;99.90;;;;;;5096624;28;19940;-78
2021/10/13 03:13:01;;;;;;;;;;;12.10;99.90;;;;;;5096451;28;19989;-76
2021/10/13 03:15:28;;;;;;;;;;;12.00;99.90;;;;;;5096387;28;20366;-76
2021/10/13 03:17:55;;;;;;;;;;;12.00;99.90;;;;;;5096214;28;20272;-78
2021/10/13 03:20:22;;;;;;;;;;;12.00;99.90;;;;;;5096353;28;19924;-77
2021/10/13 03:22:49;;;;;;;;;;;12.10;99.90;;;;;;5096371;28;19946;-77
2021/10/13 03:25:22;;;;;;;;;;;12.00;99.90;;;;;;5096261;28;20409;-77
2021/10/13 03:27:50;;;;;;;;;;;12.10;99.90;;;;;;5096198;28;19924;-76
2021/10/13 03:30:17;;;;;;;;;;;12.10;99.90;;;;;;5096298;28;19934;-76
2021/10/13 03:32:45;;;;;;;;;;;12.10;99.90;;;;;;5096216;28;19931;-76
2021/10/13 03:35:11;;;;;;;;;;;12.10;99.90;;;;;;5096069;28;19928;-77
2021/10/13 03:37:38;;;;;;;;;;;12.10;99.90;;;;;;5095917;28;19924;-78
2021/10/13 03:40:06;;;;;;;;;;;12.10;99.90;;;;;;5095858;28;19924;-77
2021/10/13 03:42:32;;;;;;;;;;;12.10;99.90;;;;;;5095790;28;20248;-76
2021/10/13 03:45:01;;;;;;;;;;;12.10;99.90;;;;;;5095890;28;19924;-78
2021/10/13 03:47:27;;;;;;;;;;;12.10;99.90;;;;;;5095923;28;19924;-77
2021/10/13 03:49:54;;;;;;;;;;;12.10;99.90;;;;;;5095585;28;20344;-77
2021/10/13 03:52:21;;;;;;;;;;;12.10;99.90;;;;;;5095822;28;19928;-77
2021/10/13 03:54:48;;;;;;;;;;;12.10;99.90;;;;;;5095861;28;19924;-78
2021/10/13 03:57:15;;;;;;;;;;;12.10;99.90;;;;;;5095801;28;19925;-78
2021/10/13 03:59:42;;;;;;;;;;;12.10;99.90;;;;;;5095527;28;20356;-77
2021/10/13 04:02:10;;;;;;;;;;;12.10;99.90;;;;;;5095482;28;19924;-77
2021/10/13 04:04:37;;;;;;;;;;;12.10;99.90;;;;;;5095778;28;19935;-77
2021/10/13 04:07:04;;;;;;;;;;;12.10;99.90;;;;;;5095448;28;20359;-77
2021/10/13 04:09:30;;;;;;;;;;;12.10;99.90;;;;;;5095482;28;19928;-77
2021/10/13 04:11:57;;;;;;;;;;;12.10;99.90;;;;;;5094611;28;19935;-77
2021/10/13 04:14:24;;;;;;;;;;;12.00;99.90;;;;;;5095662;28;19935;-79
2021/10/13 04:16:51;;;;;;;;;;;12.10;99.90;;;;;;5095281;28;20372;-76
2021/10/13 04:19:19;;;;;;;;;;;12.10;99.90;;;;;;5095299;28;19936;-79
2021/10/13 04:21:46;;;;;;;;;;;12.00;99.90;;;;;;5095144;28;19942;-76
2021/10/13 04:24:13;;;;;;;;;;;12.00;99.90;;;;;;5095539;28;20253;-77
2021/10/13 04:26:40;;;;;;;;;;;12.00;99.90;;;;;;5095318;28;19924;-77
2021/10/13 04:29:06;;;;;;;;;;;12.00;99.90;;;;;;5095219;28;19931;-78
2021/10/13 04:31:33;;;;;;;;;;;12.00;99.90;;;;;;5095147;28;19934;-77
2021/10/13 04:34:00;;;;;;;;;;;12.00;99.90;;;;;;5095070;28;20358;-77
2021/10/13 04:36:28;;;;;;;;;;;12.00;99.90;;;;;;5094906;28;19924;-77
2021/10/13 04:38:55;;;;;;;;;;;12.00;99.90;;;;;;5095143;28;19951;-77
2021/10/13 04:41:22;;;;;;;;;;;12.00;99.90;;;;;;5094995;28;19939;-77
2021/10/13 04:43:49;;;;;;;;;;;11.90;99.90;;;;;;5095249;28;19924;-77
2021/10/13 04:46:15;;;;;;;;;;;12.00;99.90;;;;;;5095200;28;19924;-77
2021/10/13 04:48:42;;;;;;;;;;;12.00;99.90;;;;;;5094967;28;20345;-78
2021/10/13 04:51:09;;;;;;;;;;;12.00;99.90;;;;;;5094894;28;19924;-77
2021/10/13 04:53:37;;;;;;;;;;;12.00;99.90;;;;;;5095191;28;19924;-77
2021/10/13 04:56:04;;;;;;;;;;;12.00;99.90;;;;;;5095061;28;20339;-77
2021/10/13 04:58:31;;;;;;;;;;;12.00;99.90;;;;;;5095161;28;19924;-77
2021/10/13 05:00:58;;;;;;;;;;;12.00;99.90;;;;;;5095001;28;19924;-78
2021/10/13 05:03:25;;;;;;;;;;;12.00;99.90;;;;;;5094796;28;20339;-77
2021/10/13 05:05:52;;;;;;;;;;;12.00;99.90;;;;;;5094808;28;19928;-78
2021/10/13 05:08:18;;;;;;;;;;;12.00;99.90;;;;;;5095058;28;19924;-79
2021/10/13 05:10:47;;;;;;;;;;;12.00;99.90;;;;;;5095054;28;19925;-78
2021/10/13 05:13:13;;;;;;;;;;;12.00;99.90;;;;;;5094861;28;19930;-77
2021/10/13 05:15:40;;;;;;;;;;;12.00;99.90;;;;;;5095024;28;19925;-77
2021/10/13 05:18:08;;;;;;;;;;;12.00;99.90;;;;;;5094885;28;19935;-77
2021/10/13 05:20:34;;;;;;;;;;;12.00;99.90;;;;;;5094953;28;19924;-77
2021/10/13 05:23:01;;;;;;;;;;;12.00;99.90;;;;;;5095073;28;19924;-77
2021/10/13 05:25:28;;;;;;;;;;;12.00;99.90;;;;;;5098801;28;19924;-77
2021/10/13 05:27:56;;;;;;;;;;;12.00;99.90;;;;;;5098495;28;20359;-78
2021/10/13 05:30:23;;;;;;;;;;;12.00;99.90;;;;;;5098456;28;20015;-78
2021/10/13 05:32:50;;;;;;;;;;;12.00;99.90;;;;;;5098446;28;19924;-79
2021/10/13 05:35:17;;;;;;;;;;;12.00;99.90;;;;;;5098325;28;20280;-77
2021/10/13 05:37:43;;;;;;;;;;;12.00;99.90;;;;;;5098053;28;19924;-79
2021/10/13 05:40:12;;;;;;;;;;;12.00;99.90;;;;;;5098235;28;19938;-77
2021/10/13 05:42:38;;;;;;;;;;;12.00;99.90;;;;;;5098143;28;19981;-77
2021/10/13 05:45:07;;;;;;;;;;;12.00;99.90;;;;;;5098323;28;19934;-77
2021/10/13 05:47:34;;;;;;;;;;;12.00;99.90;;;;;;5098087;28;19931;-77
2021/10/13 05:50:01;;;;;;;;;;;12.00;99.90;;;;;;5098226;28;19924;-78
2021/10/13 05:52:27;;;;;;;;;;;12.00;99.90;;;;;;5098202;28;19924;-80
2021/10/13 05:54:54;;;;;;;;;;;12.00;99.90;;;;;;5097924;28;20256;-78
2021/10/13 05:57:21;;;;;;;;;;;12.00;99.90;;;;;;5097941;28;19924;-77
2021/10/13 05:59:56;;;;;;;;;;;12.00;99.90;;;;;;5097876;28;19942;-77
2021/10/13 06:02:24;;;;;;;;;;;12.00;99.90;;;;;;5097708;28;19935;-77
2021/10/13 06:04:51;;;;;;;;;;;12.00;99.90;;;;;;5097980;28;19924;-77
2021/10/13 06:07:17;;;;;;;;;;;12.00;99.90;;;;;;5097886;28;19946;-78
2021/10/13 06:09:44;;;;;;;;;;;12.00;99.90;;;;;;5097760;28;20366;-78
2021/10/13 06:12:11;;;;;;;;;;;12.00;99.90;;;;;;5097699;28;19934;-78
2021/10/13 06:14:38;;;;;;;;;;;11.90;99.90;;;;;;5097537;28;19924;-77
2021/10/13 06:17:06;;;;;;;;;;;12.00;99.90;;;;;;5097711;28;19924;-78
2021/10/13 06:19:34;;;;;;;;;;;11.90;99.90;;;;;;5097594;28;19993;-77
2021/10/13 06:22:01;;;;;;;;;;;11.90;99.90;;;;;;5097335;28;19942;-77
2021/10/13 06:24:28;;;;;;;;;;;12.00;99.90;;;;;;5097470;28;19924;-78
2021/10/13 06:26:55;;;;;;;;;;;12.00;99.90;;;;;;5097437;28;19924;-76
2021/10/13 06:29:21;;;;;;;;;;;12.00;99.90;;;;;;5097233;28;20345;-77
2021/10/13 06:31:48;;;;;;;;;;;12.00;99.90;;;;;;5097186;28;19924;-77
2021/10/13 06:34:16;;;;;;;;;;;12.00;99.90;;;;;;5097248;28;19923;-77
2021/10/13 06:36:44;;;;;;;;;;;12.00;99.90;;;;;;5096230;28;19985;-77
2021/10/13 06:39:11;;;;;;;;;;;12.00;99.90;;;;;;5097120;28;19924;-77
2021/10/13 06:41:37;;;;;;;;;;;12.10;99.90;;;;;;5097303;28;19924;-77
2021/10/13 06:44:04;;;;;;;;;;;12.10;99.90;;;;;;5096851;28;19951;-77
2021/10/13 06:46:31;;;;;;;;;;;12.10;99.90;;;;;;5096914;28;20352;-77
2021/10/13 06:48:58;;;;;;;;;;;12.10;99.90;;;;;;5096772;28;19924;-78
2021/10/13 06:51:25;;;;;;;;;;;12.10;99.90;;;;;;5097153;28;19935;-77
2021/10/13 06:53:53;;;;;;;;;;;12.10;99.90;;;;;;5096962;28;19924;-77
2021/10/13 06:56:20;;;;;;;;;;;12.10;99.90;;;;;;5096763;28;19925;-77
2021/10/13 06:58:47;;;;;;;;;;;12.10;99.90;;;;;;5096679;28;19924;-77
2021/10/13 07:01:13;;;;;;;;;;;12.10;99.90;;;;;;5096703;28;19928;-77
2021/10/13 07:03:40;;;;;;;;;;;12.20;99.90;;;;;;5096639;28;19935;-77
2021/10/13 07:06:07;;;;;;;;;;;12.20;99.90;;;;;;5096553;28;19935;-78
2021/10/13 07:08:34;;;;;;;;;;;12.20;99.90;;;;;;5096569;28;19928;-79
2021/10/13 07:11:05;;;;;;;;;;;12.20;99.90;;;;;;5096578;28;19924;-88
2021/10/13 07:13:32;;;;;;;;;;;12.20;99.90;;;;;;5097239;28;19924;-76
2021/10/13 07:15:59;;;;;;;;;;;12.30;99.90;;;;;;5096372;28;19924;-77
2021/10/13 07:18:26;;;;;;;;;;;12.30;99.90;;;;;;5096811;28;19935;-78
2021/10/13 07:20:53;;;;;;;;;;;12.30;99.90;;;;;;5096374;28;19930;-77
2021/10/13 07:23:20;;;;;;;;;;;12.30;99.90;;;;;;5096214;28;20260;-77
2021/10/13 07:25:47;;;;;;;;;;;12.40;99.90;;;;;;5096248;28;19948;-76
2021/10/13 07:28:15;;;;;;;;;;;12.40;99.90;;;;;;5096182;28;20394;-76
2021/10/13 07:30:42;;;;;;;;;;;12.50;99.90;;;;;;5096403;28;20252;-76
2021/10/13 07:33:09;;;;;;;;;;;12.50;99.90;;;;;;5096221;28;19930;-78
2021/10/13 07:35:36;;;;;;;;;;;12.50;99.90;;;;;;5096110;28;19924;-76
2021/10/13 07:38:03;;;;;;;;;;;12.50;99.90;;;;;;5095841;28;19951;-78
2021/10/13 07:40:31;;;;;;;;;;;12.50;99.90;;;;;;5095911;28;19950;-77
2021/10/13 07:42:57;;;;;;;;;;;12.50;99.90;;;;;;5095830;28;19930;-76
2021/10/13 07:45:26;;;;;;;;;;;12.50;99.90;;;;;;5096146;28;19939;-77
2021/10/13 07:47:52;;;;;;;;;;;12.60;99.90;;;;;;5095680;28;19930;-76
2021/10/13 07:50:23;;;;;;;;;;;12.60;99.90;;;;;;5095916;28;19924;-76
2021/10/13 07:52:51;;;;;;;;;;;12.60;99.90;;;;;;5095801;28;19924;-76
2021/10/13 07:55:19;;;;;;;;;;;12.70;99.90;;;;;;5096037;28;19931;-77
2021/10/13 07:57:47;;;;;;;;;;;12.80;99.90;;;;;;5095904;28;19931;-78
2021/10/13 08:00:17;;;;;;;;;;;12.80;99.90;;;;;;5095582;28;20251;-76
2021/10/13 08:02:45;;;;;;;;;;;12.90;99.90;;;;;;5095464;28;19924;-77
2021/10/13 08:05:13;;;;;;;;;;;13.00;99.90;;;;;;5095671;28;19928;-76
2021/10/13 08:07:40;;;;;;;;;;;13.00;99.90;;;;;;5095648;28;20011;-76
2021/10/13 08:10:07;;;;;;;;;;;13.10;99.90;;;;;;5095502;28;19923;-76
2021/10/13 08:12:34;;;;;;;;;;;13.10;99.90;;;;;;5095342;28;20353;-76
2021/10/13 08:15:03;;;;;;;;;;;13.10;99.90;;;;;;5095339;28;19934;-78
2021/10/13 08:17:31;;;;;;;;;;;13.10;99.90;;;;;;5095501;28;19949;-78
2021/10/13 08:20:07;;;;;;;;;;;13.20;99.90;;;;;;5095262;28;19923;-76
2021/10/13 08:22:36;;;;;;;;;;;13.20;99.90;;;;;;5095278;28;19924;-76
2021/10/13 08:25:03;;;;;;;;;;;13.20;99.90;;;;;;5095580;28;19940;-76
2021/10/13 08:27:33;;;;;;;;;;;13.20;99.90;;;;;;5095372;28;19924;-77
2021/10/13 08:30:02;;;;;;;;;;;13.30;99.90;;;;;;5095269;28;19986;-76
2021/10/13 08:32:30;;;;;;;;;;;13.30;99.90;;;;;;5095220;28;19924;-76
2021/10/13 08:34:57;;;;;;;;;;;13.30;99.90;;;;;;5095160;28;19935;-76
2021/10/13 08:37:30;;;;;;;;;;;13.30;99.90;;;;;;5094385;28;20364;-78
2021/10/13 08:39:58;;;;;;;;;;;13.30;99.90;;;;;;5095173;28;19939;-76
2021/10/13 08:42:28;;;;;;;;;;;13.30;99.90;;;;;;5095156;28;19924;-76
2021/10/13 08:44:56;;;;;;;;;;;13.30;99.90;;;;;;5095226;28;20006;-76
2021/10/13 08:47:26;;;;;;;;;;;13.30;99.90;;;;;;5095223;28;20015;-76
2021/10/13 08:49:53;;;;;;;;;;;13.40;99.90;;;;;;5095212;28;19924;-76
2021/10/13 08:52:21;;;;;;;;;;;13.40;99.90;;;;;;5095004;28;19924;-76
2021/10/13 08:54:50;;;;;;;;;;;13.40;99.90;;;;;;5095013;28;19924;-76
2021/10/13 08:57:19;;;;;;;;;;;13.30;99.90;;;;;;5095069;28;20255;-76
2021/10/13 08:59:47;;;;;;;;;;;13.30;99.90;;;;;;5098258;28;19924;-77
2021/10/13 09:02:16;;;;;;;;;;;13.30;99.90;;;;;;5098051;28;19932;-79
2021/10/13 09:04:59;;;;;;;;;;;13.40;99.90;;;;;;5116637;28;19923;-76
2021/10/13 09:07:25;;;;;;;;;;;13.40;99.90;;;;;;5119152;28;19924;-76
2021/10/13 09:09:59;;;;;;;;;;;13.40;99.90;;;;;;5119284;28;20336;-75
2021/10/13 09:12:30;;;;;;;;;;;13.40;99.90;;;;;;5119213;28;19939;-76
2021/10/13 09:15:03;;;;;;;;;;;13.40;99.90;;;;;;5118598;28;19931;-77
2021/10/13 09:17:30;;;;;;;;;;;13.40;99.90;;;;;;5119074;28;19923;-76
2021/10/13 09:19:57;;;;;;;;;;;13.40;99.90;;;;;;5119066;28;20335;-76
2021/10/13 09:22:24;;;;;;;;;;;13.40;99.90;;;;;;5119016;28;19934;-75
2021/10/13 09:24:51;;;;;;;;;;;13.30;99.90;;;;;;5118789;28;19924;-76
2021/10/13 09:27:23;;;;;;;;;;;13.30;99.90;;;;;;5118107;28;19938;-76
2021/10/13 09:29:50;;;;;;;;;;;13.40;99.90;;;;;;5119268;28;19924;-76
2021/10/13 09:32:21;;;;;;;;;;;13.40;99.90;;;;;;5118826;28;20040;-76
2021/10/13 09:34:48;;;;;;;;;;;13.40;99.90;;;;;;5118749;28;20267;-75
2021/10/13 09:37:25;;;;;;;;;;;13.40;99.90;;;;;;5118490;28;19924;-76
2021/10/13 09:39:59;;;;;;;;;;;13.40;99.90;;;;;;5118704;28;19935;-75
2021/10/13 09:42:38;;;;;;;;;;;13.40;99.90;;;;;;5118904;28;20378;-77
2021/10/13 09:45:08;;;;;;;;;;;13.40;99.90;;;;;;5118752;28;20233;-76
2021/10/13 09:47:39;;;;;;;;;;;13.40;99.90;;;;;;5118600;28;19924;-76
2021/10/13 09:50:07;;;;;;;;;;;13.50;99.90;;;;;;5118448;28;20259;-77
2021/10/13 09:52:37;;;;;;;;;;;13.50;99.90;;;;;;5118411;28;19930;-76
2021/10/13 09:55:08;;;;;;;;;;;13.40;99.90;;;;;;5118271;28;19924;-76
2021/10/13 09:57:42;;;;;;;;;;;13.50;99.90;;;;;;5118400;28;19924;-76
2021/10/13 10:00:14;;;;;;;;;;;13.40;99.90;;;;;;5118444;28;20270;-76
2021/10/13 10:02:46;;;;;;;;;;;13.40;99.90;;;;;;5118206;28;19930;-76
2021/10/13 10:05:14;;;;;;;;;;;13.40;99.90;;;;;;5118083;28;19946;-76
2021/10/13 10:07:47;;;;;;;;;;;13.40;99.90;;;;;;5118411;28;19923;-76
2021/10/13 10:10:15;;;;;;;;;;;13.40;99.90;;;;;;5117027;28;20237;-77
2021/10/13 10:13:00;;;;;;;;;;;13.50;99.90;;;;;;5118130;28;20363;-76
2021/10/13 10:15:29;;;;;;;;;;;13.50;99.90;;;;;;5117960;28;19934;-77
2021/10/13 10:17:56;;;;;;;;;;;13.50;99.90;;;;;;5117990;28;20348;-77
2021/10/13 10:20:33;;;;;;;;;;;13.60;99.90;;;;;;5118168;28;19923;-77
2021/10/13 10:22:59;;;;;;;;;;;13.60;99.90;;;;;;5117820;28;19924;-76
2021/10/13 10:25:33;;;;;;;;;;;13.50;99.90;;;;;;5117791;28;19935;-76
2021/10/13 10:28:00;;;;;;;;;;;13.60;99.90;;;;;;5118053;28;19924;-77
2021/10/13 10:30:29;;;;;;;;;;;13.60;99.90;;;;;;5117972;28;19934;-76
2021/10/13 10:33:19;;;;;;;;;;;13.60;99.90;;;;;;5117600;28;20371;-77
2021/10/13 10:35:46;;;;;;;;;;;13.60;99.90;;;;;;5117585;28;19938;-78
2021/10/13 10:38:17;;;;;;;;;;;13.60;99.90;;;;;;5117688;28;19924;-78
2021/10/13 10:40:44;;;;;;;;;;;13.60;99.90;;;;;;5117554;28;20336;-77
2021/10/13 10:43:20;;;;;;;;;;;13.70;99.90;;;;;;5117698;28;20313;-76
2021/10/13 10:45:50;;;;;;;;;;;13.70;99.90;;;;;;5117601;28;19927;-78
2021/10/13 10:48:17;;;;;;;;;;;13.70;99.90;;;;;;5117590;28;19928;-76
2021/10/13 10:50:55;;;;;;;;;;;13.80;99.90;;;;;;5117421;28;19923;-78
2021/10/13 10:53:27;;;;;;;;;;;13.80;99.90;;;;;;5117384;28;20347;-78
2021/10/13 10:55:54;;;;;;;;;;;13.80;99.90;;;;;;5117302;28;19924;-77
2021/10/13 10:58:22;;;;;;;;;;;13.90;99.90;;;;;;5117379;28;20028;-76
2021/10/13 11:01:00;;;;;;;;;;;13.90;99.90;;;;;;5117212;28;19965;-76
2021/10/13 11:03:30;;;;;;;;;;;13.90;99.90;;;;;;5116999;28;20279;-76
2021/10/13 11:05:57;;;;;;;;;;;13.90;99.90;;;;;;5117216;28;19939;-77
2021/10/13 11:08:23;;;;;;;;;;;13.90;99.90;;;;;;5117170;28;19930;-76
2021/10/13 11:10:50;;;;;;;;;;;13.90;99.90;;;;;;5116998;28;19924;-76
2021/10/13 11:13:23;;;;;;;;;;;13.90;99.90;;;;;;5116961;28;19927;-76
2021/10/13 11:15:50;;;;;;;;;;;13.90;99.90;;;;;;5116866;28;19946;-76
2021/10/13 11:18:19;;;;;;;;;;;13.80;99.90;;;;;;5116598;28;20355;-76
2021/10/13 11:20:47;;;;;;;;;;;13.80;99.90;;;;;;5116704;28;19935;-77
2021/10/13 11:23:18;;;;;;;;;;;13.90;99.90;;;;;;5116692;28;19924;-77
2021/10/13 11:25:46;;;;;;;;;;;13.80;99.90;;;;;;5116908;28;19997;-77
2021/10/13 11:28:15;;;;;;;;;;;13.80;99.90;;;;;;5116553;28;20229;-77
2021/10/13 11:30:43;;;;;;;;;;;13.80;99.90;;;;;;5116510;28;19927;-78
2021/10/13 11:33:14;;;;;;;;;;;13.80;99.90;;;;;;5116478;28;20336;-76
2021/10/13 11:35:44;;;;;;;;;;;13.80;99.90;;;;;;5116377;28;20031;-77
2021/10/13 11:38:15;;;;;;;;;;;13.70;99.90;;;;;;5115939;28;19969;-76
2021/10/13 11:40:43;;;;;;;;;;;13.60;99.90;;;;;;5116335;28;19923;-75
2021/10/13 11:43:12;;;;;;;;;;;13.60;99.90;;;;;;5116269;28;19923;-76
2021/10/13 11:45:48;;;;;;;;;;;13.60;99.90;;;;;;5116318;28;19925;-76
2021/10/13 11:48:23;;;;;;;;;;;13.60;99.90;;;;;;5116331;28;20028;-76
2021/10/13 11:51:03;;;;;;;;;;;13.60;99.90;;;;;;5116269;28;20018;-76
2021/10/13 11:53:32;;;;;;;;;;;13.60;99.90;;;;;;5116447;28;19924;-75
2021/10/13 11:56:00;;;;;;;;;;;13.70;99.90;;;;;;5116241;28;19924;-76
2021/10/13 11:58:28;;;;;;;;;;;13.70;99.90;;;;;;5116019;28;19935;-76
2021/10/13 12:00:59;;;;;;;;;;;13.80;99.90;;;;;;5116023;28;19923;-76
2021/10/13 12:03:32;;;;;;;;;;;13.80;99.90;;;;;;5106100;28;20211;-76
2021/10/13 12:06:01;;;;;;;;;;;13.90;99.90;;;;;;5093107;28;19924;-76
2021/10/13 12:08:30;;;;;;;;;;;13.80;99.90;;;;;;5094532;28;20337;-76
2021/10/13 12:11:04;;;;;;;;;;;13.90;99.90;;;;;;5095440;28;19923;-76
2021/10/13 12:13:33;;;;;;;;;;;13.90;99.90;;;;;;5095494;28;19923;-76
2021/10/13 12:16:01;;;;;;;;;;;13.90;99.90;;;;;;5095279;28;19930;-76
2021/10/13 12:18:30;;;;;;;;;;;13.90;99.90;;;;;;5095250;28;20260;-76
2021/10/13 12:21:08;;;;;;;;;;;13.90;99.90;;;;;;5095135;28;20031;-75
2021/10/13 12:23:39;;;;;;;;;;;13.90;99.90;;;;;;5095025;28;19931;-76
2021/10/13 12:26:10;;;;;;;;;;;13.90;99.90;;;;;;5094995;28;19924;-76
2021/10/13 12:28:38;;;;;;;;;;;13.90;99.90;;;;;;5095217;28;20339;-76
2021/10/13 12:31:05;;;;;;;;;;;13.90;99.90;;;;;;5095125;28;20030;-75
2021/10/13 12:33:39;;;;;;;;;;;13.90;99.90;;;;;;5094589;28;19928;-76
2021/10/13 12:36:11;;;;;;;;;;;13.90;99.90;;;;;;5094778;28;19932;-76
2021/10/13 12:38:45;;;;;;;;;;;14.00;99.90;;;;;;5094591;28;19974;-75
2021/10/13 12:41:12;;;;;;;;;;;13.90;99.90;;;;;;5095119;28;19927;-75
2021/10/13 12:43:39;;;;;;;;;;;13.90;99.90;;;;;;5094978;28;19924;-75
2021/10/13 12:46:19;;;;;;;;;;;13.90;99.90;;;;;;5095006;28;20367;-75
2021/10/13 12:48:46;;;;;;;;;;;13.80;99.90;;;;;;5094943;28;19935;-76
2021/10/13 12:51:16;;;;;;;;;;;13.80;99.90;;;;;;5095131;28;19938;-75
2021/10/13 12:53:42;;;;;;;;;;;13.80;99.90;;;;;;5095017;28;20018;-76
2021/10/13 12:56:09;;;;;;;;;;;13.80;99.90;;;;;;5094944;28;19924;-75
2021/10/13 12:58:36;;;;;;;;;;;13.80;99.90;;;;;;5095175;28;19925;-75
2021/10/13 13:01:03;;;;;;;;;;;13.70;99.90;;;;;;5095210;28;19924;-75
2021/10/13 13:03:30;;;;;;;;;;;13.70;99.90;;;;;;5094931;28;20263;-75
2021/10/13 13:05:57;;;;;;;;;;;13.70;99.90;;;;;;5094722;28;19924;-75
2021/10/13 13:08:26;;;;;;;;;;;13.80;99.90;;;;;;5094709;28;19924;-76
2021/10/13 13:10:56;;;;;;;;;;;13.80;99.90;;;;;;5094730;28;19934;-75
2021/10/13 13:13:24;;;;;;;;;;;13.80;99.90;;;;;;5094842;28;19954;-75
2021/10/13 13:15:54;;;;;;;;;;;13.90;99.90;;;;;;5094779;28;20340;-75
2021/10/13 13:18:22;;;;;;;;;;;13.90;99.90;;;;;;5094602;28;20332;-75
2021/10/13 13:20:52;;;;;;;;;;;13.90;99.90;;;;;;5094728;28;19934;-75
2021/10/13 13:23:19;;;;;;;;;;;13.90;99.90;;;;;;5094175;28;20376;-75
2021/10/13 13:25:47;;;;;;;;;;;14.00;99.90;;;;;;5094435;28;20244;-75
2021/10/13 13:28:14;;;;;;;;;;;13.90;99.90;;;;;;5094591;28;19924;-75
2021/10/13 13:30:40;;;;;;;;;;;14.00;99.90;;;;;;5094468;28;19978;-75
2021/10/13 13:33:07;;;;;;;;;;;13.90;99.90;;;;;;5094311;28;20263;-75
2021/10/13 13:35:34;;;;;;;;;;;13.90;99.90;;;;;;5094594;28;19934;-75
2021/10/13 13:38:01;;;;;;;;;;;13.90;99.90;;;;;;5094376;28;19924;-75
2021/10/13 13:40:28;;;;;;;;;;;13.80;99.90;;;;;;5094779;28;19924;-75
2021/10/13 13:42:56;;;;;;;;;;;13.80;99.90;;;;;;5093782;28;19935;-75
2021/10/13 13:45:23;;;;;;;;;;;13.80;99.90;;;;;;5096839;28;20336;-74
2021/10/13 13:47:50;;;;;;;;;;;13.80;99.90;;;;;;5098202;28;19928;-75
2021/10/13 13:50:16;;;;;;;;;;;13.80;99.90;;;;;;5098083;28;19935;-75
2021/10/13 13:52:43;;;;;;;;;;;13.80;99.90;;;;;;5098044;28;19924;-75
2021/10/13 13:55:10;;;;;;;;;;;13.80;99.90;;;;;;5098153;28;19942;-74
2021/10/13 13:57:37;;;;;;;;;;;13.80;99.90;;;;;;5098025;28;20370;-74
2021/10/13 14:00:07;;;;;;;;;;;13.80;99.90;;;;;;5097784;28;19934;-75
2021/10/13 14:02:34;;;;;;;;;;;13.80;99.90;;;;;;5097848;28;19978;-75
2021/10/13 14:05:01;;;;;;;;;;;13.80;99.90;;;;;;5097665;28;19924;-75
2021/10/13 14:07:28;;;;;;;;;;;13.80;99.90;;;;;;5098069;28;19924;-75
2021/10/13 14:09:55;;;;;;;;;;;13.80;99.90;;;;;;5097888;28;20340;-75
2021/10/13 14:12:21;;;;;;;;;;;13.80;99.90;;;;;;5097575;28;19924;-75
2021/10/13 14:14:48;;;;;;;;;;;13.90;99.90;;;;;;5097707;28;19923;-75
2021/10/13 14:17:16;;;;;;;;;;;13.90;99.90;;;;;;5097736;28;19934;-75
2021/10/13 14:19:43;;;;;;;;;;;13.90;99.90;;;;;;5097499;28;19924;-75
2021/10/13 14:22:10;;;;;;;;;;;13.90;99.90;;;;;;5097504;28;19924;-75
2021/10/13 14:24:37;;;;;;;;;;;14.00;99.90;;;;;;5097585;28;19924;-75